Time;durP1;ratioP1;P1;durP2;ratioP2;P2;SDS_P1;SDS_P2;PMS_P1;PMS_P2;Temp;Humidity;BMP_temperature;BMP_pressure;BME280_temperature;BME280_humidity;BME280_pressure;Samples;Min_cycle;Max_cycle;Signal;HPM_P1;HPM_P2
2023/04/05 00:00:12;;;;;;;6.63;5.93;;;-0.20;99.90;;;;;;5035365;28;20191;-71
2023/04/05 00:02:39;;;;;;;7.67;6.37;;;-0.20;99.90;;;;;;5033427;28;20689;-72
2023/04/05 00:05:06;;;;;;;6.07;5.47;;;-0.20;99.90;;;;;;5035608;28;20213;-70
2023/04/05 00:07:34;;;;;;;7.10;6.00;;;-0.20;99.90;;;;;;5036982;28;20176;-71
2023/04/05 00:10:00;;;;;;;6.87;5.83;;;-0.20;99.90;;;;;;5033252;28;20203;-69
2023/04/05 00:12:26;;;;;;;5.87;5.37;;;-0.20;99.90;;;;;;5036093;28;20690;-71
2023/04/05 00:14:51;;;;;;;7.13;5.33;;;-0.30;99.90;;;;;;5037175;28;20270;-72
2023/04/05 00:17:17;;;;;;;6.63;5.93;;;-0.30;99.90;;;;;;5033750;28;20696;-70
2023/04/05 00:19:43;;;;;;;6.03;5.53;;;-0.30;99.90;;;;;;5034769;28;20242;-70
2023/04/05 00:22:09;;;;;;;6.30;5.70;;;-0.40;99.90;;;;;;5034188;28;20241;-71
2023/04/05 00:24:37;;;;;;;6.17;5.57;;;-0.30;99.90;;;;;;5033592;28;20243;-71
2023/04/05 00:27:04;;;;;;;7.43;5.53;;;-0.40;99.90;;;;;;5035614;28;20172;-71
2023/04/05 00:29:29;;;;;;;6.33;5.60;;;-0.40;99.90;;;;;;5034085;28;20747;-74
2023/04/05 00:31:55;;;;;;;6.67;6.03;;;-0.40;99.90;;;;;;5032471;28;20184;-71
2023/04/05 00:34:21;;;;;;;6.10;5.50;;;-0.40;99.90;;;;;;5023340;28;23352;-71
2023/04/05 00:36:46;;;;;;;5.90;5.30;;;-0.40;99.90;;;;;;5039251;28;20360;-73
2023/04/05 00:39:12;;;;;;;8.17;6.00;;;-0.40;99.90;;;;;;5036636;28;20180;-72
2023/04/05 00:41:38;;;;;;;5.33;4.83;;;-0.40;99.90;;;;;;5040706;28;20540;-71
2023/04/05 00:44:05;;;;;;;6.53;5.13;;;-0.40;99.90;;;;;;5038420;28;20291;-73
2023/04/05 00:46:35;;;;;;;8.97;5.10;;;-0.50;99.90;;;;;;5040338;28;20662;-71
2023/04/05 00:49:01;;;;;;;5.73;5.13;;;-0.50;99.90;;;;;;5035245;28;20180;-70
2023/04/05 00:51:27;;;;;;;5.77;5.17;;;-0.50;99.90;;;;;;5036552;28;20183;-70
2023/04/05 00:53:53;;;;;;;7.57;6.07;;;-0.50;99.90;;;;;;5039996;28;20651;-70
2023/04/05 00:56:20;;;;;;;6.60;5.23;;;-0.50;99.90;;;;;;5040070;28;20222;-70
2023/04/05 00:58:47;;;;;;;7.23;5.70;;;-0.60;99.90;;;;;;5039958;28;20206;-72
2023/04/05 01:01:17;;;;;;;5.33;4.83;;;-0.50;99.90;;;;;;5038739;28;20176;-70
2023/04/05 01:03:52;;;;;;;5.40;4.90;;;-0.50;99.90;;;;;;5039898;28;20207;-70
2023/04/05 01:06:43;;;;;;;6.00;5.40;;;-0.50;99.90;;;;;;5040554;28;20634;-72
2023/04/05 01:09:28;;;;;;;5.63;5.03;;;-0.60;99.90;;;;;;5040204;28;20180;-71
2023/04/05 01:11:57;;;;;;;6.40;5.30;;;-0.50;99.90;;;;;;5038934;28;20202;-70
2023/04/05 01:14:23;;;;;;;7.23;5.17;;;-0.50;99.90;;;;;;5037064;28;20204;-71
2023/04/05 01:16:50;;;;;;;5.17;4.67;;;-0.60;99.90;;;;;;5039256;28;20191;-71
2023/04/05 01:19:16;;;;;;;5.43;4.93;;;-0.60;99.90;;;;;;5036287;28;20542;-74
2023/04/05 01:22:12;;;;;;;7.23;5.33;;;-0.60;99.90;;;;;;5039438;28;20192;-70
2023/04/05 01:25:09;;;;;;;5.60;4.77;;;-0.60;99.90;;;;;;5037611;28;20258;-71
2023/04/05 01:27:44;;;;;;;5.67;5.17;;;-0.60;99.90;;;;;;5039760;28;20179;-71
2023/04/05 01:30:33;;;;;;;5.40;4.90;;;-0.60;99.90;;;;;;5023649;28;20210;-71
2023/04/05 01:33:04;;;;;;;5.93;5.33;;;-0.60;99.90;;;;;;5038424;28;20303;-74
2023/04/05 01:35:47;;;;;;;5.27;4.87;;;-0.60;99.90;;;;;;5036662;28;20184;-71
2023/04/05 01:38:19;;;;;;;6.07;4.80;;;-0.70;99.90;;;;;;5036471;28;20864;-71
2023/04/05 01:40:46;;;;;;;6.37;5.03;;;-0.70;99.90;;;;;;5037518;28;20184;-72
2023/04/05 01:43:13;;;;;;;5.37;4.87;;;-0.80;99.90;;;;;;5019276;28;20208;-72
2023/04/05 01:45:40;;;;;;;5.13;4.70;;;-0.80;99.90;;;;;;5038189;28;20611;-72
2023/04/05 01:48:06;;;;;;;5.20;4.70;;;-0.70;99.90;;;;;;5019225;28;20530;-71
2023/04/05 01:50:31;;;;;;;5.87;4.80;;;-0.80;99.90;;;;;;5036196;28;20195;-71
2023/04/05 01:52:57;;;;;;;8.10;5.33;;;-0.70;99.90;;;;;;5020829;28;20203;-71
2023/04/05 01:55:23;;;;;;;5.70;5.10;;;-0.80;99.90;;;;;;5037499;28;20183;-72
2023/04/05 01:57:48;;;;;;;6.23;5.07;;;-0.80;99.90;;;;;;5036937;28;20210;-72
2023/04/05 02:00:14;;;;;;;6.73;5.23;;;-0.90;99.90;;;;;;5036958;28;20655;-71
2023/04/05 02:02:39;;;;;;;5.30;4.80;;;-0.90;99.90;;;;;;5037503;28;20260;-72
2023/04/05 02:05:05;;;;;;;5.97;4.73;;;-1.00;99.90;;;;;;5035127;28;20532;-71
2023/04/05 02:07:31;;;;;;;4.83;4.43;;;-0.90;99.90;;;;;;5037800;28;20476;-71
2023/04/05 02:09:56;;;;;;;4.90;4.40;;;-0.90;99.90;;;;;;5035609;28;20188;-71
2023/04/05 02:12:22;;;;;;;5.43;5.00;;;-1.00;99.90;;;;;;5037877;28;20215;-72
2023/04/05 02:14:48;;;;;;;5.60;5.10;;;-1.00;99.90;;;;;;5036374;28;20192;-74
2023/04/05 02:17:14;;;;;;;5.27;4.87;;;-1.00;99.90;;;;;;5037314;28;20684;-71
2023/04/05 02:19:39;;;;;;;5.17;4.73;;;-1.10;99.90;;;;;;5037414;28;20701;-75
2023/04/05 02:22:06;;;;;;;5.83;4.90;;;-1.10;99.90;;;;;;5037898;28;20181;-70
2023/04/05 02:24:32;;;;;;;7.43;5.17;;;-1.20;99.90;;;;;;5036433;28;20212;-72
2023/04/05 02:26:58;;;;;;;5.67;5.13;;;-1.10;99.90;;;;;;5037575;28;20182;-73
2023/04/05 02:29:23;;;;;;;6.57;4.67;;;-1.10;99.90;;;;;;5038048;28;20233;-73
2023/04/05 02:31:49;;;;;;;5.07;4.57;;;-1.10;99.90;;;;;;5037568;28;20175;-71
2023/04/05 02:34:14;;;;;;;5.40;4.90;;;-1.10;99.90;;;;;;5038839;28;20253;-72
2023/04/05 02:36:40;;;;;;;5.97;5.37;;;-1.10;99.90;;;;;;5037545;28;20188;-76
2023/04/05 02:39:06;;;;;;;5.60;5.03;;;-1.20;99.90;;;;;;5035998;28;20181;-71
2023/04/05 02:41:32;;;;;;;5.63;5.00;;;-1.20;99.90;;;;;;5035991;28;20208;-71
2023/04/05 02:43:58;;;;;;;5.17;4.77;;;-1.20;99.90;;;;;;5035485;28;20257;-73
2023/04/05 02:46:24;;;;;;;5.03;4.63;;;-1.20;99.90;;;;;;5035240;28;20212;-71
2023/04/05 02:48:50;;;;;;;5.93;4.73;;;-1.20;99.90;;;;;;5035749;28;20180;-71
2023/04/05 02:51:15;;;;;;;5.67;4.70;;;-1.30;99.90;;;;;;5034622;28;20180;-71
2023/04/05 02:53:41;;;;;;;7.93;4.77;;;-1.20;99.90;;;;;;5036420;28;20196;-71
2023/04/05 02:56:07;;;;;;;4.80;4.40;;;-1.30;99.90;;;;;;5036867;28;20269;-72
2023/04/05 02:58:32;;;;;;;6.00;5.40;;;-1.40;99.90;;;;;;5036444;28;20192;-71
2023/04/05 03:01:00;;;;;;;5.27;4.77;;;-1.40;99.90;;;;;;5033815;28;20279;-71
2023/04/05 03:03:27;;;;;;;5.37;4.90;;;-1.50;99.90;;;;;;5036276;28;20195;-71
2023/04/05 03:06:08;;;;;;;5.43;4.90;;;-1.50;99.90;;;;;;5037836;28;20204;-72
2023/04/05 03:08:36;;;;;;;6.27;4.93;;;-1.40;99.90;;;;;;5035868;28;20561;-73
2023/04/05 03:11:02;;;;;;;5.93;5.07;;;-1.50;99.90;;;;;;5036228;28;20182;-72
2023/04/05 03:13:28;;;;;;;5.77;5.07;;;-1.50;99.90;;;;;;5035702;28;20686;-72
2023/04/05 03:15:54;;;;;;;5.40;4.97;;;-1.50;99.90;;;;;;5037572;28;20187;-72
2023/04/05 03:18:25;;;;;;;6.00;5.50;;;-1.60;99.90;;;;;;5034924;28;20693;-73
2023/04/05 03:20:57;;;;;;;6.17;5.50;;;-1.60;99.90;;;;;;5033577;28;20206;-74
2023/04/05 03:23:27;;;;;;;5.57;5.07;;;-1.60;99.90;;;;;;5034638;28;20199;-71
2023/04/05 03:25:55;;;;;;;5.83;4.70;;;-1.60;99.90;;;;;;5036829;28;20911;-73
2023/04/05 03:28:22;;;;;;;5.40;4.90;;;-1.60;99.90;;;;;;5034199;28;20172;-73
2023/04/05 03:30:48;;;;;;;7.37;5.47;;;-1.60;99.90;;;;;;5034166;28;20183;-73
2023/04/05 03:33:14;;;;;;;5.60;5.07;;;-1.60;99.90;;;;;;5037210;28;20214;-72
2023/04/05 03:35:39;;;;;;;6.33;4.93;;;-1.60;99.90;;;;;;5035636;28;20275;-72
2023/04/05 03:38:06;;;;;;;6.80;5.60;;;-1.70;99.90;;;;;;5033580;28;20188;-72
2023/04/05 03:40:32;;;;;;;6.27;5.73;;;-1.60;99.90;;;;;;5033441;28;20192;-73
2023/04/05 03:42:57;;;;;;;7.67;5.73;;;-1.60;99.90;;;;;;5034969;28;20208;-73
2023/04/05 03:45:23;;;;;;;6.20;5.07;;;-1.60;99.90;;;;;;5034760;28;20207;-71
2023/04/05 03:47:49;;;;;;;5.60;5.10;;;-1.60;99.90;;;;;;5036998;28;20275;-71
2023/04/05 03:50:14;;;;;;;5.63;4.93;;;-1.60;99.90;;;;;;5033441;28;20702;-73
2023/04/05 03:52:40;;;;;;;5.47;5.07;;;-1.60;99.90;;;;;;5035737;28;20282;-71
2023/04/05 03:55:06;;;;;;;7.80;5.20;;;-1.60;99.90;;;;;;5038766;28;20843;-71
2023/04/05 03:57:33;;;;;;;7.70;5.20;;;-1.60;99.90;;;;;;5034433;28;20271;-71
2023/04/05 03:59:58;;;;;;;5.80;5.20;;;-1.60;99.90;;;;;;5036507;28;20242;-72
2023/04/05 04:02:24;;;;;;;6.43;5.83;;;-1.60;99.90;;;;;;5038118;28;20203;-71
2023/04/05 04:04:50;;;;;;;5.90;5.33;;;-1.60;99.90;;;;;;5038215;28;20549;-71
2023/04/05 04:07:15;;;;;;;6.03;5.20;;;-1.70;99.90;;;;;;5035699;28;20188;-76
2023/04/05 04:09:41;;;;;;;6.83;5.00;;;-1.80;99.90;;;;;;5033365;28;20203;-71
2023/04/05 04:12:07;;;;;;;5.57;5.07;;;-1.80;99.90;;;;;;5034820;28;20433;-73
2023/04/05 04:14:35;;;;;;;5.20;4.70;;;-1.90;99.90;;;;;;5035458;28;20205;-72
2023/04/05 04:17:02;;;;;;;6.43;5.77;;;-1.90;99.90;;;;;;5034508;28;20262;-72
2023/04/05 04:19:27;;;;;;;7.23;6.00;;;-1.90;99.90;;;;;;5034233;28;20544;-71
2023/04/05 04:21:54;;;;;;;6.27;5.67;;;-2.00;99.90;;;;;;5036349;28;20182;-72
2023/04/05 04:24:20;;;;;;;6.37;5.47;;;-2.00;99.90;;;;;;5034760;28;20345;-72
2023/04/05 04:26:47;;;;;;;5.63;5.13;;;-2.00;99.90;;;;;;5035647;28;20579;-72
2023/04/05 04:29:15;;;;;;;8.67;5.53;;;-2.00;99.90;;;;;;5031668;28;20175;-75
2023/04/05 04:31:44;;;;;;;6.70;5.40;;;-2.00;99.90;;;;;;5035173;28;20657;-74
2023/04/05 04:34:12;;;;;;;6.47;5.87;;;-2.10;99.90;;;;;;5037539;28;20257;-73
2023/04/05 04:36:41;;;;;;;7.13;5.40;;;-2.10;99.90;;;;;;5034835;28;20283;-72
2023/04/05 04:39:12;;;;;;;8.40;5.97;;;-2.10;99.90;;;;;;5034697;28;20188;-71
2023/04/05 04:41:45;;;;;;;7.20;6.10;;;-2.20;99.90;;;;;;5036189;28;20714;-70
2023/04/05 04:44:13;;;;;;;5.93;5.33;;;-2.10;99.90;;;;;;5036635;28;20220;-70
2023/04/05 04:46:42;;;;;;;6.23;5.43;;;-2.10;99.90;;;;;;5022306;28;20241;-71
2023/04/05 04:49:09;;;;;;;6.03;5.27;;;-2.10;99.90;;;;;;5034971;28;20181;-70
2023/04/05 04:51:38;;;;;;;7.00;5.17;;;-2.00;99.90;;;;;;5034808;28;20176;-75
2023/04/05 04:54:04;;;;;;;7.73;5.70;;;-2.00;99.90;;;;;;5040980;28;20695;-72
2023/04/05 04:56:29;;;;;;;7.50;5.53;;;-2.00;99.90;;;;;;5037516;28;20187;-74
2023/04/05 04:58:56;;;;;;;7.40;4.87;;;-2.00;99.90;;;;;;5036347;28;20585;-70
2023/04/05 05:01:23;;;;;;;10.07;6.60;;;-2.00;99.90;;;;;;5034221;28;20305;-74
2023/04/05 05:03:50;;;;;;;7.10;5.90;;;-2.00;99.90;;;;;;5034388;28;20544;-72
2023/04/05 05:06:20;;;;;;;6.60;5.47;;;-2.00;99.90;;;;;;5033633;28;20678;-72
2023/04/05 05:08:46;;;;;;;6.13;5.30;;;-1.90;99.90;;;;;;5035246;28;20257;-71
2023/04/05 05:11:12;;;;;;;6.73;5.70;;;-1.90;99.90;;;;;;5014728;28;20196;-72
2023/04/05 05:13:37;;;;;;;5.60;5.10;;;-1.90;99.90;;;;;;5033477;28;20206;-73
2023/04/05 05:16:04;;;;;;;9.73;5.80;;;-1.80;99.90;;;;;;5035638;28;20185;-70
2023/04/05 05:18:30;;;;;;;7.73;5.37;;;-1.80;99.90;;;;;;5036244;28;20836;-73
2023/04/05 05:20:55;;;;;;;6.13;5.10;;;-1.70;99.90;;;;;;5039263;28;20198;-71
2023/04/05 05:23:21;;;;;;;5.23;4.77;;;-1.70;99.90;;;;;;5021418;28;20572;-69
2023/04/05 05:25:47;;;;;;;7.47;5.30;;;-1.60;99.90;;;;;;5022824;28;20209;-70
2023/04/05 05:28:12;;;;;;;6.43;5.40;;;-1.60;99.90;;;;;;5037321;28;20226;-71
2023/04/05 05:30:38;;;;;;;5.80;5.03;;;-1.50;99.90;;;;;;5038295;28;20187;-71
2023/04/05 05:33:03;;;;;;;6.37;5.17;;;-1.40;99.90;;;;;;5039787;28;20510;-70
2023/04/05 05:35:29;;;;;;;6.97;5.33;;;-1.40;99.90;;;;;;5036510;28;20186;-70
2023/04/05 05:37:54;;;;;;;8.70;6.27;;;-1.30;99.90;;;;;;5037690;28;20188;-70
2023/04/05 05:40:20;;;;;;;5.70;5.17;;;-1.20;99.90;;;;;;5021551;28;20371;-70
2023/04/05 05:42:46;;;;;;;6.83;5.07;;;-1.20;99.90;;;;;;5037083;28;20219;-71
2023/04/05 05:45:12;;;;;;;5.80;5.03;;;-1.10;99.90;;;;;;5039567;28;20223;-74
2023/04/05 05:47:37;;;;;;;5.53;5.03;;;-1.00;99.90;;;;;;5037692;28;20176;-73
2023/04/05 05:50:04;;;;;;;4.83;4.43;;;-0.90;99.90;;;;;;5036745;28;20207;-75
2023/04/05 05:52:30;;;;;;;5.23;4.73;;;-0.90;99.90;;;;;;5035691;28;20200;-70
2023/04/05 05:54:55;;;;;;;5.00;4.50;;;-0.80;99.90;;;;;;5034474;28;20188;-72
2023/04/05 05:57:22;;;;;;;5.60;4.40;;;-0.70;99.90;;;;;;5037473;28;20274;-70
2023/04/05 05:59:47;;;;;;;7.03;5.37;;;-0.50;99.90;;;;;;5036625;28;20187;-70
2023/04/05 06:02:13;;;;;;;5.90;5.10;;;-0.40;99.90;;;;;;5033347;28;20824;-70
2023/04/05 06:04:39;;;;;;;4.50;4.20;;;-0.40;99.90;;;;;;5039363;28;20250;-71
2023/04/05 06:07:04;;;;;;;5.37;4.80;;;-0.40;99.90;;;;;;5039329;28;20199;-70
2023/04/05 06:09:32;;;;;;;4.50;4.10;;;-0.30;99.90;;;;;;5037128;28;20184;-71
2023/04/05 06:11:58;;;;;;;6.27;4.50;;;-0.20;99.90;;;;;;5022464;28;20824;-70
2023/04/05 06:14:24;;;;;;;4.77;4.27;;;-0.10;99.90;;;;;;5040167;28;20211;-72
2023/04/05 06:16:50;;;;;;;5.17;4.63;;;0.00;99.90;;;;;;5036860;28;20180;-70
2023/04/05 06:19:15;;;;;;;5.23;4.73;;;0.10;99.90;;;;;;5040866;28;20797;-73
2023/04/05 06:21:41;;;;;;;4.57;4.17;;;0.20;99.90;;;;;;5046598;28;20192;-73
2023/04/05 06:24:06;;;;;;;4.97;4.27;;;0.30;99.90;;;;;;5042493;28;20689;-73
2023/04/05 06:26:32;;;;;;;5.03;4.57;;;0.40;99.90;;;;;;5041052;28;20257;-73
2023/04/05 06:28:57;;;;;;;4.53;4.03;;;0.40;99.90;;;;;;5038127;28;20179;-72
2023/04/05 06:31:31;;;;;;;4.60;4.20;;;0.50;99.90;;;;;;5037636;28;20307;-69
2023/04/05 06:33:56;;;;;;;5.30;4.80;;;0.60;99.90;;;;;;5049373;28;20203;-70
2023/04/05 06:36:22;;;;;;;4.37;3.70;;;0.70;99.90;;;;;;5053981;28;20259;-72
2023/04/05 06:38:47;;;;;;;4.17;3.70;;;0.80;99.90;;;;;;5049819;28;20249;-71
2023/04/05 06:41:13;;;;;;;4.63;4.23;;;0.90;99.90;;;;;;5048281;28;20187;-70
2023/04/05 06:43:39;;;;;;;5.20;4.10;;;1.10;99.90;;;;;;5061347;28;20215;-71
2023/04/05 06:46:08;;;;;;;5.10;4.30;;;1.10;99.90;;;;;;5047909;28;20215;-71
2023/04/05 06:48:33;;;;;;;6.60;3.93;;;1.20;99.90;;;;;;5034210;28;20184;-71
2023/04/05 06:51:01;;;;;;;4.80;4.10;;;1.30;99.90;;;;;;5049703;28;20199;-71
2023/04/05 06:53:27;;;;;;;6.20;4.10;;;1.40;99.90;;;;;;5047168;28;20291;-71
2023/04/05 06:55:57;;;;;;;6.83;4.33;;;1.60;99.90;;;;;;5051365;28;20172;-71
2023/04/05 06:58:24;;;;;;;4.53;4.00;;;1.70;99.90;;;;;;5051940;28;20184;-70
2023/04/05 07:00:50;;;;;;;7.20;4.80;;;1.80;99.90;;;;;;5048621;28;20237;-71
2023/04/05 07:03:16;;;;;;;3.90;3.60;;;1.90;99.90;;;;;;5051823;28;20659;-73
2023/04/05 07:05:52;;;;;;;7.23;3.93;;;2.10;99.90;;;;;;5052945;28;20269;-73
2023/04/05 07:08:19;;;;;;;4.70;3.80;;;2.40;99.90;;;;;;5052119;28;20547;-74
2023/04/05 07:10:45;;;;;;;3.80;3.50;;;2.70;99.90;;;;;;5049439;28;20271;-72
2023/04/05 07:13:11;;;;;;;4.17;3.67;;;3.00;99.00;;;;;;5053713;28;20652;-74
2023/04/05 07:15:37;;;;;;;4.37;3.83;;;3.30;98.30;;;;;;5046799;28;20192;-75
2023/04/05 07:18:02;;;;;;;5.87;4.10;;;3.60;97.70;;;;;;5047081;28;20179;-72
2023/04/05 07:20:28;;;;;;;5.53;4.10;;;3.80;96.90;;;;;;5040351;28;20717;-73
2023/04/05 07:22:53;;;;;;;6.03;3.83;;;4.00;96.10;;;;;;5045636;28;20294;-71
2023/04/05 07:25:19;;;;;;;5.70;3.90;;;4.00;95.70;;;;;;5037836;28;20235;-72
2023/04/05 07:27:45;;;;;;;4.13;3.77;;;4.10;95.40;;;;;;5045272;28;20299;-73
2023/04/05 07:30:12;;;;;;;5.07;4.10;;;4.00;95.10;;;;;;5031820;28;20195;-73
2023/04/05 07:32:38;;;;;;;7.60;4.60;;;4.00;95.50;;;;;;5047665;28;20749;-74
2023/04/05 07:35:04;;;;;;;6.13;4.77;;;4.00;95.50;;;;;;5052611;28;20179;-73
2023/04/05 07:37:30;;;;;;;6.67;4.30;;;3.90;95.70;;;;;;5046604;28;20185;-74
2023/04/05 07:39:57;;;;;;;6.40;4.75;;;3.80;95.80;;;;;;5047426;28;20234;-73
2023/04/05 07:42:23;;;;;;;4.97;4.23;;;3.80;95.30;;;;;;5046645;28;20590;-74
2023/04/05 07:44:48;;;;;;;4.50;4.10;;;3.60;95.20;;;;;;5050941;28;20215;-74
2023/04/05 07:47:14;;;;;;;8.60;4.20;;;3.60;95.20;;;;;;5049231;28;20184;-74
2023/04/05 07:49:39;;;;;;;5.27;4.07;;;3.50;94.70;;;;;;5051422;28;20233;-74
2023/04/05 07:52:05;;;;;;;4.73;3.97;;;3.50;95.10;;;;;;5050283;28;20551;-74
2023/04/05 07:54:34;;;;;;;10.57;4.27;;;3.40;94.90;;;;;;5051990;28;20229;-74
2023/04/05 07:57:00;;;;;;;7.50;3.63;;;3.40;94.50;;;;;;5051099;28;20192;-73
2023/04/05 07:59:25;;;;;;;3.80;3.50;;;3.40;93.00;;;;;;5042862;28;20306;-74
2023/04/05 08:01:51;;;;;;;5.90;3.70;;;3.40;92.50;;;;;;5051599;28;20199;-74
2023/04/05 08:04:18;;;;;;;9.13;3.60;;;3.50;93.20;;;;;;5052009;28;20211;-74
2023/04/05 08:06:44;;;;;;;3.20;3.00;;;3.60;92.80;;;;;;5049320;28;20196;-74
2023/04/05 08:09:09;;;;;;;3.50;3.20;;;3.70;92.60;;;;;;5049967;28;20180;-74
2023/04/05 08:11:35;;;;;;;3.77;3.37;;;3.80;92.00;;;;;;5052384;28;20595;-74
2023/04/05 08:14:01;;;;;;;3.73;3.37;;;3.90;89.20;;;;;;5043022;28;20191;-74
2023/04/05 08:16:27;;;;;;;4.00;2.95;;;3.90;90.00;;;;;;5048325;28;20203;-75
2023/04/05 08:18:52;;;;;;;5.17;3.20;;;4.00;87.40;;;;;;5053267;28;20536;-73
2023/04/05 08:21:18;;;;;;;3.40;3.10;;;4.00;87.40;;;;;;5053053;28;20688;-74
2023/04/05 08:23:43;;;;;;;5.60;3.40;;;4.10;88.10;;;;;;5049177;28;20259;-75
2023/04/05 08:26:09;;;;;;;2.80;2.50;;;4.10;84.50;;;;;;5051817;28;20211;-73
2023/04/05 08:28:35;;;;;;;2.90;2.50;;;4.20;85.00;;;;;;5047667;28;20176;-75
2023/04/05 08:31:00;;;;;;;4.25;3.08;;;4.20;84.70;;;;;;5049931;28;20177;-75
2023/04/05 08:33:29;;;;;;;5.47;2.93;;;4.30;80.20;;;;;;5048369;28;20195;-74
2023/04/05 08:35:56;;;;;;;2.65;2.45;;;4.40;81.10;;;;;;5050729;28;20214;-74
2023/04/05 08:38:21;;;;;;;4.10;2.78;;;4.50;80.10;;;;;;5046675;28;20219;-74
2023/04/05 08:40:47;;;;;;;2.95;2.55;;;4.60;81.20;;;;;;5051154;28;20199;-75
2023/04/05 08:43:30;;;;;;;3.13;2.78;;;4.70;81.00;;;;;;5049611;28;20196;-73
2023/04/05 08:45:58;;;;;;;3.30;2.95;;;4.80;79.50;;;;;;5051524;28;20227;-76
2023/04/05 08:48:27;;;;;;;3.83;2.78;;;4.70;77.40;;;;;;5043269;28;20260;-74
2023/04/05 08:50:54;;;;;;;2.90;2.70;;;4.70;74.80;;;;;;5045788;28;20184;-74
2023/04/05 08:53:20;;;;;;;2.88;2.65;;;4.80;77.10;;;;;;5043998;28;20291;-74
2023/04/05 08:55:52;;;;;;;5.53;2.80;;;4.90;78.00;;;;;;5053176;28;20271;-74
2023/04/05 08:58:21;;;;;;;2.90;2.67;;;5.20;78.20;;;;;;5044350;28;20186;-74
2023/04/05 09:00:48;;;;;;;5.80;3.05;;;5.50;76.90;;;;;;5044916;28;20189;-75
2023/04/05 09:03:17;;;;;;;3.20;2.50;;;5.70;75.30;;;;;;5049545;28;20199;-74
2023/04/05 09:05:47;;;;;;;2.17;2.08;;;6.20;71.50;;;;;;5045578;28;20204;-74
2023/04/05 09:08:13;;;;;;;3.42;2.72;;;7.40;68.30;;;;;;5040906;28;20318;-74
2023/04/05 09:10:39;;;;;;;6.45;2.85;;;9.70;64.50;;;;;;5047915;28;20263;-75
2023/04/05 09:13:05;;;;;;;4.88;2.42;;;12.10;55.20;;;;;;5033213;28;20287;-75
2023/04/05 09:15:31;;;;;;;3.70;2.60;;;14.10;50.50;;;;;;5046540;28;20275;-76
2023/04/05 09:17:57;;;;;;;5.18;2.63;;;15.90;48.10;;;;;;5046808;28;20583;-75
2023/04/05 09:20:23;;;;;;;3.65;2.10;;;17.50;44.60;;;;;;5045046;28;20331;-75
2023/04/05 09:22:48;;;;;;;3.47;2.63;;;18.90;41.70;;;;;;5045153;28;20203;-76
2023/04/05 09:25:37;;;;;;;2.63;2.42;;;20.20;39.60;;;;;;5030210;28;20210;-75
2023/04/05 09:28:11;;;;;;;3.75;2.90;;;21.20;38.10;;;;;;5045988;28;20215;-76
2023/04/05 09:30:36;;;;;;;4.07;2.72;;;22.00;36.90;;;;;;5043830;28;20238;-76
2023/04/05 09:33:06;;;;;;;3.45;3.08;;;22.50;35.70;;;;;;5043788;28;20204;-75
2023/04/05 09:35:32;;;;;;;2.53;2.28;;;22.30;34.30;;;;;;5046441;28;20188;-78
2023/04/05 09:38:00;;;;;;;2.65;2.45;;;22.10;34.40;;;;;;5044018;28;20184;-76
2023/04/05 09:40:48;;;;;;;2.58;2.38;;;22.80;34.40;;;;;;5040784;28;20222;-76
2023/04/05 09:43:40;;;;;;;2.95;2.60;;;23.70;33.60;;;;;;5042015;28;20197;-77
2023/04/05 09:46:06;;;;;;;3.17;2.60;;;24.50;34.00;;;;;;5025615;28;20214;-78
2023/04/05 09:48:48;;;;;;;3.22;2.17;;;25.10;33.40;;;;;;5049158;28;20573;-77
2023/04/05 09:51:17;;;;;;;2.58;2.40;;;25.30;31.80;;;;;;5056057;28;20511;-78
2023/04/05 09:54:04;;;;;;;5.70;2.95;;;25.00;32.10;;;;;;5056255;28;20196;-77
2023/04/05 09:56:35;;;;;;;2.88;2.60;;;24.70;30.90;;;;;;5036657;28;20184;-76
2023/04/05 09:59:04;;;;;;;2.63;2.42;;;24.50;32.70;;;;;;5053585;28;20171;-77
2023/04/05 10:01:31;;;;;;;2.58;2.38;;;24.90;32.70;;;;;;5041031;28;20235;-77
2023/04/05 10:03:58;;;;;;;2.40;2.20;;;25.90;31.50;;;;;;5044610;28;20233;-78
2023/04/05 10:06:40;;;;;;;3.85;2.45;;;26.60;31.80;;;;;;5044296;28;20202;-77
2023/04/05 10:09:07;;;;;;;4.82;2.88;;;27.10;30.90;;;;;;5042942;28;20618;-77
2023/04/05 10:11:35;;;;;;;2.83;2.53;;;27.50;29.90;;;;;;5041274;28;20182;-78
2023/04/05 10:14:02;;;;;;;2.67;2.47;;;28.40;30.40;;;;;;5044712;28;20665;-78
2023/04/05 10:16:32;;;;;;;3.22;2.42;;;29.10;29.30;;;;;;5046081;28;20181;-77
2023/04/05 10:18:58;;;;;;;2.95;2.67;;;29.60;28.30;;;;;;5043082;28;20194;-77
2023/04/05 10:21:29;;;;;;;2.30;2.17;;;30.20;28.50;;;;;;5040884;28;20192;-78
2023/04/05 10:24:35;;;;;;;3.67;2.53;;;30.30;28.00;;;;;;5041535;28;20289;-78
2023/04/05 10:27:07;;;;;;;2.30;2.20;;;29.70;28.00;;;;;;5045176;28;20182;-77
2023/04/05 10:30:00;;;;;;;2.45;2.25;;;29.30;29.00;;;;;;5041994;28;20266;-78
2023/04/05 10:32:40;;;;;;;3.03;1.98;;;29.20;28.20;;;;;;5040698;28;20671;-80
2023/04/05 10:35:16;;;;;;;2.67;2.05;;;29.40;26.90;;;;;;5042845;28;20613;-78
2023/04/05 10:37:53;;;;;;;4.80;2.50;;;28.60;26.90;;;;;;5043864;28;20187;-78
2023/04/05 10:40:23;;;;;;;3.25;2.75;;;28.30;27.60;;;;;;5042428;28;20186;-79
2023/04/05 10:42:49;;;;;;;2.60;2.40;;;27.60;28.40;;;;;;5041893;28;20250;-78
2023/04/05 10:45:18;;;;;;;2.78;2.15;;;27.70;28.70;;;;;;5041612;28;20218;-78
2023/04/05 10:47:54;;;;;;;2.80;2.35;;;27.90;27.80;;;;;;5046651;28;20175;-79
2023/04/05 10:50:22;;;;;;;2.50;2.25;;;27.70;28.80;;;;;;5039756;28;20217;-76
2023/04/05 10:52:49;;;;;;;2.65;2.40;;;28.30;27.70;;;;;;5050034;28;20656;-77
2023/04/05 10:55:16;;;;;;;3.13;2.47;;;28.50;29.20;;;;;;5038558;28;20259;-76
2023/04/05 10:57:43;;;;;;;3.30;2.45;;;28.90;28.40;;;;;;5043456;28;20299;-76
2023/04/05 11:00:10;;;;;;;3.22;2.28;;;29.50;28.00;;;;;;5038838;28;20179;-75
2023/04/05 11:02:36;;;;;;;2.80;2.60;;;30.20;27.00;;;;;;5045001;28;20718;-75
2023/04/05 11:05:05;;;;;;;4.20;2.58;;;30.70;28.00;;;;;;5037578;28;20198;-75
2023/04/05 11:07:44;;;;;;;3.35;2.47;;;31.10;26.80;;;;;;5045692;28;20222;-74
2023/04/05 11:10:17;;;;;;;5.40;2.83;;;31.80;27.20;;;;;;5040071;28;20179;-75
2023/04/05 11:12:45;;;;;;;2.55;2.22;;;31.70;26.30;;;;;;5047584;28;20285;-75
2023/04/05 11:15:29;;;;;;;3.88;2.22;;;31.50;26.60;;;;;;5037836;28;20263;-75
2023/04/05 11:18:16;;;;;;;2.33;2.22;;;29.80;26.40;;;;;;5041437;28;20175;-74
2023/04/05 11:20:54;;;;;;;2.40;2.20;;;28.90;27.60;;;;;;5043110;28;20283;-74
2023/04/05 11:23:22;;;;;;;2.45;2.25;;;29.30;27.40;;;;;;5039658;28;20686;-74
2023/04/05 11:25:58;;;;;;;2.08;1.98;;;29.40;28.60;;;;;;5037367;28;20302;-75
2023/04/05 11:28:36;;;;;;;3.25;2.35;;;29.70;27.30;;;;;;5039113;28;20176;-75
2023/04/05 11:31:16;;;;;;;3.80;2.50;;;30.80;26.70;;;;;;5049479;28;20172;-75
2023/04/05 11:33:47;;;;;;;2.78;2.13;;;30.90;28.10;;;;;;5044608;28;20286;-75
2023/04/05 11:36:34;;;;;;;2.70;2.50;;;31.30;26.50;;;;;;5042912;28;20187;-76
2023/04/05 11:39:17;;;;;;;2.97;2.22;;;30.90;25.90;;;;;;5043126;28;20182;-74
2023/04/05 11:41:52;;;;;;;2.50;2.30;;;30.60;26.30;;;;;;5041080;28;20176;-75
2023/04/05 11:44:18;;;;;;;2.70;2.50;;;30.40;26.90;;;;;;5041454;28;20234;-75
2023/04/05 11:46:48;;;;;;;2.20;2.00;;;30.10;25.80;;;;;;5044705;28;20693;-77
2023/04/05 11:49:14;;;;;;;2.55;2.35;;;29.50;26.20;;;;;;5024388;28;20248;-77
2023/04/05 11:51:47;;;;;;;3.47;2.80;;;28.90;28.50;;;;;;5033175;28;20181;-75
2023/04/05 11:54:13;;;;;;;2.40;2.20;;;28.70;28.70;;;;;;5043710;28;20760;-74
2023/04/05 11:56:39;;;;;;;2.63;2.42;;;29.90;27.80;;;;;;5043966;28;20606;-75
2023/04/05 11:59:06;;;;;;;2.45;2.22;;;29.50;27.20;;;;;;5040593;28;20710;-75
2023/04/05 12:01:32;;;;;;;3.28;2.50;;;28.70;27.80;;;;;;5042095;28;20186;-75
2023/04/05 12:03:57;;;;;;;3.25;2.55;;;27.30;27.70;;;;;;5045972;28;20223;-75
2023/04/05 12:06:24;;;;;;;2.85;2.65;;;25.40;28.30;;;;;;5042210;28;20212;-78
2023/04/05 12:08:52;;;;;;;2.58;2.38;;;23.40;30.60;;;;;;5043987;28;20175;-79
2023/04/05 12:11:29;;;;;;;3.15;2.50;;;22.00;30.00;;;;;;5050341;28;20184;-78
2023/04/05 12:13:57;;;;;;;3.05;2.80;;;20.50;32.00;;;;;;5043454;28;20689;-78
2023/04/05 12:16:23;;;;;;;2.88;2.58;;;19.40;33.20;;;;;;5045232;28;20192;-79
2023/04/05 12:18:56;;;;;;;3.17;2.65;;;18.50;34.00;;;;;;5038164;28;20682;-84
2023/04/05 12:21:23;;;;;;;2.63;2.28;;;17.90;35.50;;;;;;5040502;28;20275;-78
2023/04/05 12:23:50;;;;;;;2.65;2.47;;;17.50;35.40;;;;;;5034889;28;20721;-77
2023/04/05 12:26:16;;;;;;;3.20;2.90;;;17.20;36.00;;;;;;5035566;28;20208;-78
2023/04/05 12:28:51;;;;;;;4.40;3.10;;;17.80;36.10;;;;;;5043085;28;20685;-77
2023/04/05 12:31:16;;;;;;;2.70;2.50;;;18.10;35.00;;;;;;5041707;28;20266;-77
2023/04/05 12:33:42;;;;;;;3.08;2.72;;;18.20;35.80;;;;;;5024344;28;20206;-77
2023/04/05 12:36:10;;;;;;;3.47;2.55;;;17.90;36.00;;;;;;5042467;28;20196;-73
2023/04/05 12:38:36;;;;;;;3.53;3.03;;;17.80;35.10;;;;;;5041981;28;20180;-77
2023/04/05 12:41:03;;;;;;;2.53;2.30;;;18.50;35.30;;;;;;5041438;28;20180;-76
2023/04/05 12:43:39;;;;;;;4.03;2.60;;;20.30;34.60;;;;;;5049206;28;20622;-77
2023/04/05 12:46:15;;;;;;;3.13;2.70;;;21.90;33.80;;;;;;5051233;28;20215;-79
2023/04/05 12:48:41;;;;;;;3.28;2.95;;;23.20;32.00;;;;;;5032783;28;20677;-77
2023/04/05 12:51:16;;;;;;;3.25;2.95;;;23.50;30.50;;;;;;5054485;28;20252;-78
2023/04/05 12:53:46;;;;;;;3.05;2.47;;;23.10;31.10;;;;;;5045579;28;20669;-78